Quick Links (Output Below):   Max & Min Temps   /   Climate Reports   /   Zone Forecasts
River Forecasts   /   Forestry Forecasts   /   Aviation Forecasts   /   Radars   /   Features

Terminal Aerodrome Forecast (El Dorado)

Pick a Site:
Arkadelphia | El Dorado | Fayetteville | Fort Smith | Harrison | Highfill | Hot Springs | Jonesboro
Little Rock | Monticello | Mountain Home | Pine Bluff | Texarkana
 Forecast 

KELD 251723Z 2518/2618 18009KT P6SM BKN040
     FM260000 16005KT P6SM FEW050 BKN250
     FM261000 17006KT P6SM BKN015
     FM261600 17010KT P6SM BKN035=


 Latest METARs (Observations) 
How to Decode METARs
18Z KELD 251753Z AUTO 18009KT 10SM SCT028 BKN041 30/23 A3005 RMK AO2
         SLP172 T03000228 10300 20239 58006
         
17Z KELD 251653Z AUTO 20009KT 10SM SCT026 SCT031 BKN041 28/23 A3007
         RMK AO2 SLP177 T02830228
         
16Z KELD 251553Z AUTO 18010KT 10SM SCT019 BKN026 OVC033 27/23 A3007
         RMK AO2 SLP180 T02670228
         
15Z KELD 251453Z AUTO 17006KT 10SM BKN016 OVC023 26/23 A3007 RMK AO2
         SLP179 T02610228 50002
         
14Z KELD 251353Z AUTO 17009KT 10SM OVC012 25/23 A3008 RMK AO2 SLP181
         T02500228
         
13Z KELD 251253Z AUTO 14006KT 9SM BKN011 BKN100 24/22 A3007 RMK AO2
         SLP179 T02390222
         
12Z KELD 251153Z AUTO 15004KT 9SM BKN012 23/22 A3006 RMK AO2 SLP176
         T02330222 10244 20228 53019
         
11Z KELD 251053Z AUTO 16005KT 10SM CLR 23/22 A3004 RMK AO2 SLP167
         T02280222
         
10Z KELD 250953Z AUTO 19008KT 10SM BKN013 23/22 A3003 RMK AO2 SLP163
         T02330222
         
09Z KELD 250853Z AUTO 18008KT 10SM CLR 23/22 A3001 RMK AO2 SLP157
         T02330217 55011
         
***** Today's Observations (Above) *****


Back to Main Page
http://www.srh.noaa.gov/lzk/qfcst.php

USA.gov is the U.S. government's official web portal to all federal, state and local government web resources and services.